Time;durP1;ratioP1;P1;durP2;ratioP2;P2;SDS_P1;SDS_P2;PMS_P1;PMS_P2;Temp;Humidity;BMP_temperature;BMP_pressure;BME280_temperature;BME280_humidity;BME280_pressure;Samples;Min_cycle;Max_cycle;Signal;HPM_P1;HPM_P2
2022/06/08 00:02:28;;;;;;;12.60;7.63;;;12.90;99.90;;;;;;5036930;28;20110;-84
2022/06/08 00:04:54;;;;;;;13.55;7.97;;;12.90;99.90;;;;;;5054546;28;20044;-85
2022/06/08 00:07:20;;;;;;;15.07;7.88;;;12.80;99.90;;;;;;5037747;28;20033;-85
2022/06/08 00:09:45;;;;;;;13.88;8.27;;;12.80;99.90;;;;;;5053861;28;20045;-85
2022/06/08 00:12:11;;;;;;;20.80;13.73;;;12.80;99.90;;;;;;5054209;28;20071;-85
2022/06/08 00:14:37;;;;;;;14.07;7.82;;;12.90;99.90;;;;;;5054241;28;20413;-84
2022/06/08 00:17:03;;;;;;;12.07;6.82;;;12.80;99.90;;;;;;5053755;28;20155;-85
2022/06/08 00:19:29;;;;;;;14.27;7.90;;;12.80;99.90;;;;;;5053623;28;20043;-84
2022/06/08 00:21:55;;;;;;;14.07;10.52;;;12.70;99.90;;;;;;5053915;28;20044;-85
2022/06/08 00:24:21;;;;;;;13.95;8.23;;;12.80;99.90;;;;;;5053903;28;20681;-85
2022/06/08 00:26:46;;;;;;;14.63;7.90;;;12.80;99.90;;;;;;5054307;28;20068;-85
2022/06/08 00:29:12;;;;;;;12.45;7.70;;;12.80;99.90;;;;;;5037086;28;20512;-84
2022/06/08 00:31:38;;;;;;;14.23;11.73;;;12.70;99.90;;;;;;5053859;28;20043;-84
2022/06/08 00:34:03;;;;;;;14.40;9.90;;;12.80;99.90;;;;;;5053881;28;20412;-85
2022/06/08 00:36:29;;;;;;;9.98;5.57;;;12.80;99.90;;;;;;5053870;28;20047;-85
2022/06/08 00:38:55;;;;;;;10.43;5.88;;;12.70;99.90;;;;;;5036800;28;20041;-85
2022/06/08 00:41:40;;;;;;;11.65;6.22;;;12.60;99.90;;;;;;5036927;28;20040;-85
2022/06/08 00:44:30;;;;;;;10.32;6.28;;;12.60;99.90;;;;;;5053746;28;20076;-85
2022/06/08 00:46:58;;;;;;;12.32;7.43;;;12.50;99.90;;;;;;5037052;28;20036;-85
2022/06/08 00:49:30;;;;;;;11.40;5.85;;;12.50;99.90;;;;;;5053159;28;20045;-85
2022/06/08 00:51:59;;;;;;;9.07;4.35;;;12.40;99.90;;;;;;5053632;28;20044;-85
2022/06/08 00:54:30;;;;;;;10.55;5.32;;;12.30;99.90;;;;;;5036700;28;20043;-85
2022/06/08 00:57:04;;;;;;;10.90;7.32;;;12.30;99.90;;;;;;5053956;28;20591;-85
2022/06/08 00:59:31;;;;;;;10.93;6.18;;;12.30;99.90;;;;;;5053322;28;20045;-85
2022/06/08 01:01:57;;;;;;;10.00;5.80;;;12.40;99.90;;;;;;5036491;28;20033;-85
2022/06/08 01:04:22;;;;;;;13.40;10.35;;;12.40;99.90;;;;;;5053936;28;20029;-85
2022/06/08 01:06:54;;;;;;;12.02;6.82;;;12.50;99.90;;;;;;5037002;28;20506;-84
2022/06/08 01:09:34;;;;;;;16.80;13.75;;;12.50;99.90;;;;;;5052999;28;20040;-85
2022/06/08 01:12:04;;;;;;;16.02;9.30;;;12.60;99.90;;;;;;5036964;28;20083;-85
2022/06/08 01:14:30;;;;;;;13.00;8.98;;;12.60;99.90;;;;;;5055146;28;20098;-85
2022/06/08 01:17:08;;;;;;;16.42;9.93;;;12.60;99.90;;;;;;5057196;28;20048;-84
2022/06/08 01:19:37;;;;;;;13.52;9.15;;;12.60;99.90;;;;;;5040525;28;20073;-84
2022/06/08 01:22:06;;;;;;;14.98;10.32;;;12.70;99.90;;;;;;5057580;28;20458;-84
2022/06/08 01:24:34;;;;;;;17.00;15.07;;;12.70;99.90;;;;;;5057276;28;20079;-84
2022/06/08 01:27:30;;;;;;;20.90;10.63;;;12.80;99.90;;;;;;5057127;28;20379;-85
2022/06/08 01:30:16;;;;;;;16.38;9.65;;;12.80;99.90;;;;;;5056875;28;20090;-84
2022/06/08 01:32:56;;;;;;;16.02;10.45;;;12.80;99.90;;;;;;5057266;28;20044;-84
2022/06/08 01:35:55;;;;;;;17.00;9.88;;;12.80;99.90;;;;;;5057197;28;20054;-84
2022/06/08 01:38:40;;;;;;;15.77;10.93;;;12.90;99.90;;;;;;5056820;28;20044;-84
2022/06/08 01:41:24;;;;;;;17.35;10.60;;;12.90;99.90;;;;;;5040328;28;20075;-85
2022/06/08 01:44:21;;;;;;;18.77;16.77;;;12.90;99.90;;;;;;5057294;28;20044;-85
2022/06/08 01:47:06;;;;;;;16.17;11.55;;;13.00;99.90;;;;;;5056885;28;20036;-85
2022/06/08 01:49:37;;;;;;;22.35;12.07;;;13.00;99.90;;;;;;5039704;28;20044;-85
2022/06/08 01:52:22;;;;;;;14.77;11.32;;;12.90;99.90;;;;;;5040059;28;20052;-85
2022/06/08 01:55:05;;;;;;;18.90;16.90;;;12.90;99.90;;;;;;5056480;28;20459;-85
2022/06/08 01:58:03;;;;;;;14.45;10.50;;;13.00;99.90;;;;;;5040198;28;20048;-85
2022/06/08 02:00:35;;;;;;;14.65;9.57;;;13.00;99.90;;;;;;5056111;28;20079;-85
2022/06/08 02:03:21;;;;;;;16.45;10.20;;;13.00;99.90;;;;;;5056591;28;20040;-85
2022/06/08 02:06:17;;;;;;;16.70;11.60;;;13.00;99.90;;;;;;5056964;28;20473;-85
2022/06/08 02:08:56;;;;;;;17.35;11.48;;;13.10;99.90;;;;;;5055897;28;20102;-85
2022/06/08 02:11:37;;;;;;;18.60;11.07;;;13.00;99.90;;;;;;5056532;28;20037;-84
2022/06/08 02:14:26;;;;;;;21.48;13.05;;;13.10;99.90;;;;;;5040002;28;20111;-85
2022/06/08 02:16:57;;;;;;;19.58;15.90;;;13.10;99.90;;;;;;5056386;28;20044;-85
2022/06/08 02:19:38;;;;;;;16.15;11.70;;;13.20;99.90;;;;;;5039570;28;20119;-85
2022/06/08 02:22:25;;;;;;;17.25;11.82;;;13.10;99.90;;;;;;5039886;28;20595;-85
2022/06/08 02:25:02;;;;;;;17.35;15.52;;;13.20;99.90;;;;;;5056071;28;20121;-85
2022/06/08 02:27:34;;;;;;;17.35;11.70;;;13.20;99.90;;;;;;5055568;28;20439;-85
2022/06/08 02:30:13;;;;;;;15.88;10.98;;;13.20;99.90;;;;;;5055828;28;20449;-85
2022/06/08 02:35:35;;;;;;;17.17;10.98;;;13.20;99.90;;;;;;5015902;28;20129;-85
2022/06/08 02:38:06;;;;;;;17.80;11.02;;;13.20;99.90;;;;;;5039334;28;20516;-85
2022/06/08 02:40:34;;;;;;;19.35;17.35;;;13.20;99.90;;;;;;5055608;28;20055;-85
2022/06/08 02:43:11;;;;;;;19.23;12.65;;;13.20;99.90;;;;;;5039205;28;20512;-85
2022/06/08 02:45:41;;;;;;;19.60;17.13;;;13.30;99.90;;;;;;5039277;28;20040;-85
2022/06/08 02:48:10;;;;;;;20.23;17.92;;;13.30;99.90;;;;;;5055841;28;20033;-85
2022/06/08 02:50:38;;;;;;;16.15;10.85;;;13.30;99.90;;;;;;5055147;28;20159;-85
2022/06/08 02:53:18;;;;;;;15.55;11.18;;;13.40;99.90;;;;;;5038990;28;20432;-85
2022/06/08 02:56:07;;;;;;;19.55;17.55;;;13.30;99.90;;;;;;5055770;28;20470;-84
2022/06/08 02:58:48;;;;;;;19.25;11.88;;;13.40;99.90;;;;;;5039014;28;20124;-85
2022/06/08 03:01:42;;;;;;;18.00;12.82;;;13.40;99.90;;;;;;5055035;28;20044;-85
2022/06/08 03:04:14;;;;;;;17.92;11.80;;;13.30;99.90;;;;;;5055848;28;20041;-85
2022/06/08 03:06:51;;;;;;;20.77;12.77;;;13.40;99.90;;;;;;5055306;28;20064;-85
2022/06/08 03:09:18;;;;;;;19.85;17.52;;;13.30;99.90;;;;;;5054926;28;20427;-85
2022/06/08 03:11:51;;;;;;;17.95;11.98;;;13.40;99.90;;;;;;5038954;28;20405;-85
2022/06/08 03:14:17;;;;;;;17.73;12.90;;;13.40;99.90;;;;;;5055108;28;20079;-84
2022/06/08 03:17:00;;;;;;;19.00;16.38;;;13.40;99.90;;;;;;5055313;28;20063;-85
2022/06/08 03:19:29;;;;;;;20.80;16.50;;;13.40;99.90;;;;;;5038173;28;20204;-85
2022/06/08 03:21:55;;;;;;;21.02;17.92;;;13.50;99.90;;;;;;5054974;28;20123;-85
2022/06/08 03:24:21;;;;;;;19.52;12.43;;;13.50;99.90;;;;;;5038604;28;20119;-85
2022/06/08 03:26:52;;;;;;;16.77;12.05;;;13.50;99.90;;;;;;5054982;28;20040;-85
2022/06/08 03:29:19;;;;;;;19.67;17.58;;;13.40;99.90;;;;;;5037870;28;20059;-85
2022/06/08 03:31:44;;;;;;;20.88;12.60;;;13.50;99.90;;;;;;5038350;28;20094;-85
2022/06/08 03:34:10;;;;;;;20.05;13.02;;;13.50;99.90;;;;;;5055097;28;20036;-85
2022/06/08 03:36:36;;;;;;;21.30;17.73;;;13.50;99.90;;;;;;5054540;28;20451;-85
2022/06/08 03:39:03;;;;;;;20.00;13.00;;;13.50;99.90;;;;;;5054704;28;20032;-85
2022/06/08 03:41:29;;;;;;;16.73;12.68;;;13.50;99.90;;;;;;5054900;28;20079;-85
2022/06/08 03:43:55;;;;;;;21.23;18.48;;;13.60;99.90;;;;;;5054573;28;20464;-85
2022/06/08 03:46:20;;;;;;;20.02;12.50;;;13.60;99.90;;;;;;5037943;28;20033;-85
2022/06/08 03:48:46;;;;;;;19.98;12.35;;;13.60;99.90;;;;;;5054680;28;20037;-85
2022/06/08 03:51:16;;;;;;;24.27;19.33;;;13.60;99.90;;;;;;5037519;28;20041;-85
2022/06/08 03:54:05;;;;;;;18.27;13.45;;;13.60;99.90;;;;;;5037694;28;20500;-85
2022/06/08 03:56:33;;;;;;;17.38;12.32;;;13.60;99.90;;;;;;5037794;28;20068;-85
2022/06/08 03:58:59;;;;;;;19.98;17.80;;;13.60;99.90;;;;;;5054184;28;20036;-84
2022/06/08 04:01:25;;;;;;;19.92;13.60;;;13.60;99.90;;;;;;5054220;28;20036;-85
2022/06/08 04:03:52;;;;;;;21.25;18.33;;;13.70;99.90;;;;;;5054369;28;20039;-85
2022/06/08 04:06:20;;;;;;;28.52;13.65;;;13.70;99.90;;;;;;5054057;28;20040;-85
2022/06/08 04:08:45;;;;;;;22.05;14.85;;;13.70;99.90;;;;;;5054341;28;20119;-85
2022/06/08 04:11:11;;;;;;;21.70;14.65;;;13.70;99.90;;;;;;5053879;28;20095;-85
2022/06/08 04:13:37;;;;;;;20.63;13.85;;;13.70;99.90;;;;;;5053923;28;20040;-85
2022/06/08 04:16:03;;;;;;;20.27;14.38;;;13.70;99.90;;;;;;5054039;28;20055;-85
2022/06/08 04:18:30;;;;;;;23.67;13.98;;;13.70;99.90;;;;;;5054382;28;20382;-85
2022/06/08 04:20:57;;;;;;;20.25;18.05;;;13.80;99.90;;;;;;5053333;28;20047;-85
2022/06/08 04:23:25;;;;;;;21.25;18.42;;;13.80;99.90;;;;;;5037501;28;20417;-85
2022/06/08 04:25:51;;;;;;;18.67;13.70;;;13.90;99.90;;;;;;5037509;28;20440;-85
2022/06/08 04:28:18;;;;;;;20.85;13.52;;;13.90;99.90;;;;;;5053657;28;20068;-85
2022/06/08 04:30:44;;;;;;;20.80;15.23;;;13.90;99.90;;;;;;5053468;28;20032;-84
2022/06/08 04:33:10;;;;;;;20.63;17.55;;;13.90;99.90;;;;;;5053918;28;20076;-85
2022/06/08 04:35:36;;;;;;;19.48;14.88;;;13.90;99.90;;;;;;5054174;28;20059;-85
2022/06/08 04:38:02;;;;;;;23.75;14.73;;;14.00;99.90;;;;;;5053510;28;20448;-85
2022/06/08 04:40:29;;;;;;;20.10;18.00;;;14.00;99.90;;;;;;5053222;28;20101;-84
2022/06/08 04:42:55;;;;;;;21.13;14.68;;;14.00;99.90;;;;;;5053704;28;20048;-85
2022/06/08 04:45:21;;;;;;;21.15;18.60;;;14.00;99.90;;;;;;5036809;28;20482;-84
2022/06/08 04:47:47;;;;;;;19.05;13.27;;;14.10;99.90;;;;;;5053747;28;20036;-84
2022/06/08 04:50:13;;;;;;;19.95;14.23;;;14.10;99.90;;;;;;5052872;28;20101;-85
2022/06/08 04:52:39;;;;;;;21.63;14.38;;;14.10;99.90;;;;;;5036913;28;20043;-85
2022/06/08 04:55:07;;;;;;;22.17;19.27;;;14.10;99.90;;;;;;5053531;28;20037;-85
2022/06/08 04:57:36;;;;;;;21.40;15.57;;;14.20;99.90;;;;;;5053733;28;20060;-85
2022/06/08 05:00:09;;;;;;;21.88;19.50;;;14.20;99.90;;;;;;5036284;28;20043;-85
2022/06/08 05:02:44;;;;;;;22.13;15.68;;;14.30;99.90;;;;;;5037024;28;20397;-85
2022/06/08 05:05:24;;;;;;;23.35;20.38;;;14.40;99.90;;;;;;5036870;28;20040;-85
2022/06/08 05:07:50;;;;;;;20.83;15.15;;;14.40;99.90;;;;;;5036970;28;20066;-85
2022/06/08 05:10:18;;;;;;;26.15;21.40;;;14.40;99.90;;;;;;5053079;28;20115;-85
2022/06/08 05:12:44;;;;;;;23.23;17.17;;;14.50;99.90;;;;;;5053446;28;20139;-85
2022/06/08 05:15:16;;;;;;;25.38;22.63;;;14.50;99.90;;;;;;5053779;28;20037;-85
2022/06/08 05:17:42;;;;;;;22.88;16.20;;;14.60;99.90;;;;;;5037154;28;20163;-85
2022/06/08 05:20:09;;;;;;;26.05;23.15;;;14.60;99.90;;;;;;5052966;28;20565;-85
2022/06/08 05:22:37;;;;;;;22.88;16.10;;;14.70;99.90;;;;;;5053456;28;20044;-85
2022/06/08 05:25:08;;;;;;;24.52;17.45;;;14.70;99.90;;;;;;5036832;28;20082;-85
2022/06/08 05:27:33;;;;;;;24.63;21.67;;;14.70;99.90;;;;;;5052713;28;20524;-86
2022/06/08 05:29:59;;;;;;;23.35;18.02;;;14.70;99.90;;;;;;5053255;28;20032;-85
2022/06/08 05:32:25;;;;;;;23.00;18.15;;;14.80;99.90;;;;;;5053167;28;20040;-85
2022/06/08 05:34:50;;;;;;;25.80;23.10;;;14.80;99.90;;;;;;5037197;28;20044;-85
2022/06/08 05:37:16;;;;;;;24.67;19.63;;;14.90;99.90;;;;;;5053150;28;20072;-85
2022/06/08 05:39:42;;;;;;;27.25;19.80;;;14.90;99.90;;;;;;5053034;28;20072;-85
2022/06/08 05:42:08;;;;;;;25.08;20.67;;;15.00;99.90;;;;;;5036637;28;20072;-85
2022/06/08 05:44:35;;;;;;;26.65;23.83;;;15.10;99.90;;;;;;5052859;28;20083;-85
2022/06/08 05:47:02;;;;;;;24.05;21.30;;;15.20;99.90;;;;;;5053056;28;20076;-85
2022/06/08 05:49:28;;;;;;;25.98;23.35;;;15.20;99.90;;;;;;5036358;28;20072;-85
2022/06/08 05:51:54;;;;;;;25.67;22.92;;;15.30;99.90;;;;;;5052693;28;20099;-85
2022/06/08 05:54:20;;;;;;;23.73;20.90;;;15.40;99.90;;;;;;5053122;28;20070;-85
2022/06/08 05:56:45;;;;;;;26.08;23.45;;;15.40;99.90;;;;;;5036773;28;20095;-85
2022/06/08 05:59:11;;;;;;;24.85;21.17;;;15.50;99.90;;;;;;5052760;28;20075;-85
2022/06/08 06:01:37;;;;;;;24.85;21.08;;;15.50;99.90;;;;;;5054441;28;20040;-85
2022/06/08 06:04:07;;;;;;;26.42;21.27;;;15.50;99.90;;;;;;5039924;28;20047;-85
2022/06/08 06:06:33;;;;;;;26.45;21.10;;;15.60;99.90;;;;;;5056091;28;20047;-84
2022/06/08 06:08:59;;;;;;;25.80;23.15;;;15.70;99.90;;;;;;5050024;28;20449;-85
2022/06/08 06:11:25;;;;;;;27.02;24.17;;;15.80;99.90;;;;;;5056602;28;20052;-85
2022/06/08 06:13:50;;;;;;;26.77;24.00;;;15.90;99.90;;;;;;5056597;28;20405;-85
2022/06/08 06:16:16;;;;;;;25.45;22.95;;;16.00;99.90;;;;;;5056132;28;20068;-84
2022/06/08 06:18:42;;;;;;;23.77;19.30;;;16.10;99.90;;;;;;5056426;28;20050;-85
2022/06/08 06:21:09;;;;;;;24.30;21.80;;;16.20;99.90;;;;;;5056119;28;20071;-85
2022/06/08 06:23:35;;;;;;;23.30;20.23;;;16.30;99.90;;;;;;5039336;28;20121;-86
2022/06/08 06:26:00;;;;;;;23.30;20.92;;;16.30;99.90;;;;;;5056581;28;20075;-85
2022/06/08 06:28:26;;;;;;;24.15;20.75;;;16.40;99.90;;;;;;5056385;28;20033;-85
2022/06/08 06:30:51;;;;;;;24.17;21.20;;;16.50;99.90;;;;;;5055320;28;20047;-85
2022/06/08 06:33:17;;;;;;;22.70;19.77;;;16.60;99.90;;;;;;5056422;28;20047;-86
2022/06/08 06:35:42;;;;;;;22.38;20.02;;;16.70;99.90;;;;;;5039544;28;20634;-86
2022/06/08 06:38:09;;;;;;;17.75;15.75;;;16.80;99.90;;;;;;5056070;28;20036;-86
2022/06/08 06:40:36;;;;;;;19.48;17.50;;;16.90;99.90;;;;;;5055605;28;20048;-85
2022/06/08 06:43:03;;;;;;;20.48;18.33;;;16.90;99.90;;;;;;5055870;28;20444;-86
2022/06/08 06:45:29;;;;;;;20.55;18.38;;;17.00;99.90;;;;;;5055751;28;20401;-86
2022/06/08 06:47:55;;;;;;;19.33;17.33;;;17.20;99.90;;;;;;5039271;28;20037;-86
2022/06/08 06:50:25;;;;;;;19.77;17.35;;;17.20;99.90;;;;;;5055531;28;20044;-86
2022/06/08 06:52:50;;;;;;;19.77;17.77;;;17.30;99.90;;;;;;5038740;28;20131;-86
2022/06/08 06:55:26;;;;;;;18.55;16.65;;;17.40;99.90;;;;;;5038538;28;20131;-87
2022/06/08 06:57:53;;;;;;;16.88;15.07;;;17.40;99.90;;;;;;5055311;28;20048;-87
2022/06/08 07:00:18;;;;;;;17.80;15.90;;;17.40;99.90;;;;;;5055304;28;20040;-87
2022/06/08 07:02:44;;;;;;;18.17;16.23;;;17.50;99.90;;;;;;5055635;28;20551;-86
2022/06/08 07:05:20;;;;;;;17.35;15.55;;;17.60;99.90;;;;;;5055486;28;20502;-87
2022/06/08 07:07:47;;;;;;;18.17;16.27;;;17.60;99.90;;;;;;5055161;28;20486;-86
2022/06/08 07:10:13;;;;;;;16.52;14.75;;;17.60;99.90;;;;;;5038344;28;20040;-86
2022/06/08 07:12:38;;;;;;;15.35;12.95;;;17.70;99.90;;;;;;5055043;28;20044;-86
2022/06/08 07:15:04;;;;;;;15.43;13.18;;;17.70;99.90;;;;;;5054972;28;20089;-86
2022/06/08 07:17:30;;;;;;;14.82;13.20;;;17.80;99.90;;;;;;5055613;28;20533;-86
2022/06/08 07:19:55;;;;;;;18.05;14.18;;;17.80;99.90;;;;;;5055125;28;20519;-86
2022/06/08 07:22:21;;;;;;;16.60;14.88;;;17.90;99.90;;;;;;5072676;28;20413;-86
2022/06/08 07:24:47;;;;;;;17.35;15.55;;;18.00;99.90;;;;;;5055164;28;20120;-86
2022/06/08 07:27:13;;;;;;;16.27;13.02;;;18.10;99.90;;;;;;5054036;28;20094;-85
2022/06/08 07:29:38;;;;;;;14.05;12.57;;;18.10;99.90;;;;;;5035942;28;20704;-86
2022/06/08 07:32:04;;;;;;;15.52;13.68;;;18.20;99.90;;;;;;5036453;28;20101;-86
2022/06/08 07:34:31;;;;;;;15.40;13.80;;;18.20;99.90;;;;;;5053152;28;20090;-86
2022/06/08 07:36:56;;;;;;;16.38;14.23;;;18.30;99.90;;;;;;5036438;28;20044;-86
2022/06/08 07:39:22;;;;;;;15.30;12.98;;;18.30;99.90;;;;;;5052861;28;20516;-86
2022/06/08 07:41:49;;;;;;;13.40;11.73;;;18.40;99.90;;;;;;5052964;28;20524;-86
2022/06/08 07:44:16;;;;;;;14.35;11.52;;;18.40;99.90;;;;;;5054023;28;20054;-86
2022/06/08 07:46:42;;;;;;;13.93;9.13;;;18.40;99.90;;;;;;5038154;28;20044;-87
2022/06/08 07:51:54;;;;;;;12.68;10.10;;;18.50;99.90;;;;;;5054058;28;20127;-87
2022/06/08 07:54:22;;;;;;;13.25;11.27;;;18.60;99.90;;;;;;5054543;28;20075;-87
2022/06/08 07:56:48;;;;;;;14.35;11.35;;;18.70;99.90;;;;;;5054575;28;20610;-86
2022/06/08 07:59:14;;;;;;;14.00;10.35;;;18.70;99.90;;;;;;5053766;28;20123;-86
2022/06/08 08:01:40;;;;;;;11.57;8.65;;;18.80;99.90;;;;;;5037983;28;20136;-86
2022/06/08 08:04:05;;;;;;;12.25;9.00;;;18.90;99.90;;;;;;5037780;28;20115;-86
2022/06/08 08:06:31;;;;;;;10.68;8.05;;;19.00;99.90;;;;;;5053940;28;20036;-87
2022/06/08 08:09:00;;;;;;;12.52;8.35;;;19.10;99.90;;;;;;5054633;28;20040;-87
2022/06/08 08:11:26;;;;;;;11.57;7.95;;;19.10;99.90;;;;;;5054128;28;20040;-87
2022/06/08 08:13:53;;;;;;;14.27;8.50;;;19.20;99.90;;;;;;5037281;28;20082;-86
2022/06/08 08:16:18;;;;;;;12.30;8.57;;;19.30;99.90;;;;;;5037424;28;20082;-86
2022/06/08 08:18:44;;;;;;;12.02;9.65;;;19.30;99.90;;;;;;5054379;28;20072;-86
2022/06/08 08:21:10;;;;;;;12.15;8.95;;;19.40;99.90;;;;;;5053203;28;20038;-86
2022/06/08 08:23:36;;;;;;;12.95;8.75;;;19.50;99.90;;;;;;5053455;28;20040;-86
2022/06/08 08:26:02;;;;;;;11.02;8.20;;;19.50;99.90;;;;;;5054149;28;20088;-86
2022/06/08 08:28:28;;;;;;;11.05;7.38;;;19.60;99.90;;;;;;5053754;28;20048;-86
2022/06/08 08:30:54;;;;;;;12.70;9.65;;;19.70;99.90;;;;;;5036974;28;20079;-86
2022/06/08 08:33:20;;;;;;;10.73;7.35;;;19.80;99.90;;;;;;5053934;28;20126;-87
2022/06/08 08:35:45;;;;;;;10.68;8.20;;;19.80;99.90;;;;;;5053402;28;20041;-86
2022/06/08 08:38:11;;;;;;;12.10;8.02;;;19.70;99.90;;;;;;5053886;28;20405;-86
2022/06/08 08:40:45;;;;;;;11.25;7.60;;;19.80;99.90;;;;;;5053482;28;20051;-86
2022/06/08 08:43:24;;;;;;;11.13;7.82;;;19.80;99.90;;;;;;5053414;28;20425;-86
2022/06/08 08:46:18;;;;;;;9.82;6.70;;;19.80;99.90;;;;;;5053882;28;20394;-86
2022/06/08 08:48:50;;;;;;;;;;;19.90;99.90;;;;;;5037870;28;20048;-86
2022/06/08 08:51:43;;;;;;;10.27;7.35;;;19.80;99.90;;;;;;5052804;28;19932;-86
2022/06/08 08:54:28;;;;;;;10.27;6.90;;;19.90;99.90;;;;;;5045753;28;20456;-86
2022/06/08 08:57:12;;;;;;;9.90;7.60;;;20.00;99.90;;;;;;5053578;28;20043;-87
2022/06/08 08:59:43;;;;;;;10.48;7.75;;;20.10;99.90;;;;;;5053244;28;20036;-86
2022/06/08 09:02:14;;;;;;;11.45;7.75;;;20.10;99.90;;;;;;5053337;28;20040;-87
2022/06/08 09:04:47;;;;;;;11.20;8.13;;;20.00;99.90;;;;;;5053631;28;20119;-87
2022/06/08 09:07:16;;;;;;;10.23;7.18;;;20.10;99.90;;;;;;5037192;28;20037;-87
2022/06/08 09:09:43;;;;;;;12.00;7.60;;;20.00;99.90;;;;;;5053228;28;20044;-87
2022/06/08 09:12:15;;;;;;;10.30;6.30;;;20.10;99.90;;;;;;5036792;28;20111;-86
2022/06/08 09:14:49;;;;;;;9.65;5.43;;;20.20;99.90;;;;;;5053426;28;20493;-87
2022/06/08 09:17:19;;;;;;;9.50;4.97;;;20.30;99.90;;;;;;5053382;28;20504;-87
2022/06/08 09:19:48;;;;;;;10.95;4.97;;;20.40;99.90;;;;;;5052832;28;20449;-86
2022/06/08 09:22:17;;;;;;;10.70;6.28;;;20.50;99.90;;;;;;5053435;28;20048;-87
2022/06/08 09:24:53;;;;;;;10.25;5.97;;;20.60;99.90;;;;;;5053505;28;20090;-87
2022/06/08 09:27:22;;;;;;;9.98;5.35;;;20.70;99.90;;;;;;5053284;28;20418;-86
2022/06/08 09:30:06;;;;;;;9.48;5.07;;;20.70;99.90;;;;;;5052798;28;20493;-86
2022/06/08 09:32:43;;;;;;;7.88;4.07;;;20.80;99.90;;;;;;5036763;28;20128;-86
2022/06/08 09:35:37;;;;;;;8.60;4.55;;;20.90;99.90;;;;;;5053997;28;20205;-86
2022/06/08 09:38:14;;;;;;;8.43;5.28;;;21.00;99.90;;;;;;5057283;28;20052;-87
2022/06/08 09:41:13;;;;;;;8.90;5.50;;;21.00;99.90;;;;;;5056676;28;20056;-86
2022/06/08 09:43:57;;;;;;;10.82;4.70;;;21.00;99.90;;;;;;5039956;28;20045;-86
2022/06/08 09:53:04;;;;;;;7.38;4.07;;;21.00;99.90;;;;;;5056614;28;20364;-86
2022/06/08 09:55:42;;;;;;;10.27;5.00;;;21.10;99.90;;;;;;5057197;28;20052;-87
2022/06/08 09:58:14;;;;;;;8.70;4.60;;;21.10;99.90;;;;;;5056385;28;20044;-86
2022/06/08 10:00:52;;;;;;;9.13;4.82;;;21.10;99.90;;;;;;5056729;28;20049;-86
2022/06/08 10:03:35;;;;;;;11.02;5.53;;;21.20;99.90;;;;;;5056513;28;20127;-87
2022/06/08 10:06:00;;;;;;;9.20;5.15;;;21.20;99.90;;;;;;5039952;28;20045;-87
2022/06/08 10:08:53;;;;;;;9.23;5.28;;;21.20;99.90;;;;;;5057070;28;20435;-87
2022/06/08 10:11:54;;;;;;;11.02;5.40;;;21.30;99.90;;;;;;5039361;28;20043;-87
2022/06/08 10:14:41;;;;;;;8.30;4.75;;;21.20;99.90;;;;;;5056531;28;20056;-87
2022/06/08 10:17:20;;;;;;;9.20;5.05;;;21.20;99.90;;;;;;5057126;28;20127;-86
2022/06/08 10:20:01;;;;;;;9.25;5.40;;;21.30;99.90;;;;;;5047786;28;20032;-86
2022/06/08 10:22:34;;;;;;;9.77;4.90;;;21.20;99.90;;;;;;5088281;28;20076;-86
2022/06/08 10:25:07;;;;;;;9.30;4.97;;;21.30;99.90;;;;;;5065589;28;20029;-86
2022/06/08 10:27:38;;;;;;;9.15;5.05;;;21.30;99.90;;;;;;5082695;28;20044;-86
2022/06/08 10:30:18;;;;;;;8.93;4.30;;;21.40;99.90;;;;;;5073396;28;20029;-86
2022/06/08 10:32:53;;;;;;;9.27;4.95;;;21.50;99.90;;;;;;5057187;28;20539;-86
2022/06/08 10:35:28;;;;;;;8.90;5.22;;;21.60;99.90;;;;;;5075815;28;20043;-86
2022/06/08 10:37:55;;;;;;;11.63;5.20;;;21.70;99.90;;;;;;5076157;28;20082;-86
2022/06/08 10:40:29;;;;;;;10.13;4.75;;;21.80;99.90;;;;;;5059026;28;20496;-86
2022/06/08 10:42:55;;;;;;;9.65;5.10;;;21.80;99.90;;;;;;5075407;28;20051;-86
2022/06/08 10:45:21;;;;;;;10.18;4.97;;;21.90;99.90;;;;;;5076107;28;20036;-87
2022/06/08 10:48:01;;;;;;;10.20;4.88;;;21.90;99.90;;;;;;5075194;28;20040;-86
2022/06/08 10:50:31;;;;;;;10.23;5.53;;;21.90;99.90;;;;;;5075298;28;20488;-87
2022/06/08 10:54:53;;;;;;;9.68;5.53;;;22.00;99.90;;;;;;5075675;28;20412;-86
2022/06/08 10:55:45;;;;;;;9.38;5.35;;;22.20;99.90;;;;;;5075186;28;20056;-86
2022/06/08 10:58:15;;;;;;;10.07;5.60;;;22.20;99.90;;;;;;5075738;28;20048;-87
2022/06/08 11:00:58;;;;;;;11.73;5.50;;;22.20;99.90;;;;;;5075643;28;20122;-86
2022/06/08 11:03:39;;;;;;;10.00;5.70;;;22.30;99.90;;;;;;5058466;28;20602;-86
2022/06/08 11:06:47;;;;;;;9.57;5.32;;;22.40;99.90;;;;;;5067647;28;20040;-87
2022/06/08 11:09:43;;;;;;;8.85;5.32;;;22.40;99.90;;;;;;5048988;28;20040;-87
2022/06/08 11:12:11;;;;;;;8.82;5.25;;;22.50;99.90;;;;;;5038076;28;20079;-86
2022/06/08 11:14:43;;;;;;;7.30;3.35;;;22.60;99.90;;;;;;5062842;28;20043;-87
2022/06/08 11:17:17;;;;;;;7.47;3.50;;;22.60;99.90;;;;;;5066437;28;20131;-87
2022/06/08 11:19:44;;;;;;;7.53;3.47;;;22.60;99.90;;;;;;5064087;28;20040;-86
2022/06/08 11:22:19;;;;;;;7.63;3.50;;;22.50;99.90;;;;;;5064011;28;20044;-87
2022/06/08 11:24:54;;;;;;;7.38;3.40;;;22.40;99.90;;;;;;5064750;28;20591;-87
2022/06/08 11:27:33;;;;;;;9.68;2.97;;;22.30;99.90;;;;;;5063639;28;20047;-87
2022/06/08 11:30:20;;;;;;;7.20;3.28;;;22.20;99.90;;;;;;5063395;28;20039;-87
2022/06/08 11:32:52;;;;;;;8.85;3.00;;;22.10;99.90;;;;;;5065339;28;20386;-87
2022/06/08 11:35:30;;;;;;;7.70;3.63;;;22.10;99.90;;;;;;5080758;28;20036;-87
2022/06/08 11:38:15;;;;;;;8.52;3.45;;;22.00;99.90;;;;;;5046933;28;20494;-86
2022/06/08 11:40:42;;;;;;;12.05;3.67;;;22.00;99.90;;;;;;5063282;28;20094;-86
2022/06/08 11:43:36;;;;;;;8.27;3.63;;;21.90;99.90;;;;;;5063668;28;20039;-87
2022/06/08 11:46:04;;;;;;;7.13;2.92;;;21.90;99.90;;;;;;5053918;28;20123;-86
2022/06/08 11:48:43;;;;;;;7.10;2.92;;;21.80;99.90;;;;;;5064514;28;20039;-87
2022/06/08 11:51:08;;;;;;;6.72;3.13;;;21.70;99.90;;;;;;5064263;28;20413;-86
2022/06/08 11:53:39;;;;;;;9.35;3.20;;;21.60;99.90;;;;;;5063143;28;20048;-86
2022/06/08 11:56:27;;;;;;;13.38;1.88;;;21.50;99.90;;;;;;5063821;28;20048;-87
2022/06/08 11:58:55;;;;;;;7.68;1.30;;;21.20;99.90;;;;;;5064499;28;20080;-86
2022/06/08 12:01:22;;;;;;;6.00;1.15;;;20.70;99.90;;;;;;5056813;28;20045;-87
2022/06/08 12:04:00;;;;;;;9.18;1.60;;;20.30;99.90;;;;;;5053842;28;20085;-86
2022/06/08 12:06:28;;;;;;;9.15;1.80;;;20.00;99.90;;;;;;5054359;28;20047;-87
2022/06/08 12:09:04;;;;;;;6.68;1.60;;;19.70;99.90;;;;;;5054246;28;20036;-86
2022/06/08 12:11:33;;;;;;;7.75;1.63;;;19.50;99.90;;;;;;5053876;28;20072;-86
2022/06/08 12:14:30;;;;;;;7.15;1.45;;;19.30;99.90;;;;;;5054246;28;20493;-86
2022/06/08 12:17:24;;;;;;;6.82;1.60;;;19.20;99.90;;;;;;5050243;28;20088;-87
2022/06/08 12:19:55;;;;;;;7.50;1.40;;;19.10;99.90;;;;;;5053731;28;20044;-86
2022/06/08 12:22:32;;;;;;;6.60;1.40;;;19.10;99.90;;;;;;5054038;28;20041;-86
2022/06/08 12:25:13;;;;;;;4.60;1.52;;;19.00;99.90;;;;;;5037331;28;20044;-86
2022/06/08 12:28:09;;;;;;;8.55;2.00;;;19.00;99.90;;;;;;5053967;28;20046;-86
2022/06/08 12:30:43;;;;;;;6.75;1.58;;;19.00;99.90;;;;;;5053680;28;20050;-86
2022/06/08 12:33:16;;;;;;;7.53;1.80;;;19.00;99.90;;;;;;5036976;28;20051;-86
2022/06/08 12:35:56;;;;;;;8.52;2.38;;;19.00;99.90;;;;;;5053989;28;20128;-86
2022/06/08 12:38:27;;;;;;;8.13;2.60;;;19.00;99.90;;;;;;5037500;28;20378;-86
2022/06/08 12:41:13;;;;;;;8.20;2.60;;;19.00;99.90;;;;;;5053213;28;20048;-86
2022/06/08 12:43:46;;;;;;;8.25;2.85;;;19.00;99.90;;;;;;5053527;28;20524;-86
2022/06/08 12:46:26;;;;;;;11.90;3.08;;;19.00;99.90;;;;;;5053802;28;20116;-86
2022/06/08 12:48:54;;;;;;;9.93;2.58;;;19.00;99.90;;;;;;5053394;28;20047;-86
2022/06/08 12:51:29;;;;;;;7.50;2.40;;;19.00;99.90;;;;;;5037072;28;20032;-86
2022/06/08 12:53:56;;;;;;;8.55;2.65;;;19.10;99.90;;;;;;5053632;28;20044;-86
2022/06/08 12:56:22;;;;;;;6.18;2.55;;;19.10;99.90;;;;;;5036669;28;20123;-86
2022/06/08 12:58:49;;;;;;;9.48;2.63;;;19.10;99.90;;;;;;5053844;28;20037;-86
2022/06/08 13:01:15;;;;;;;7.95;2.58;;;19.10;99.90;;;;;;5053271;28;20413;-86
2022/06/08 13:03:43;;;;;;;10.02;3.08;;;19.10;99.90;;;;;;5053209;28;20102;-86
2022/06/08 13:06:09;;;;;;;9.85;3.30;;;19.10;99.90;;;;;;5037241;28;20082;-86
2022/06/08 13:08:35;;;;;;;10.68;3.55;;;19.20;99.90;;;;;;5037282;28;20104;-86
2022/06/08 13:11:04;;;;;;;9.15;3.60;;;19.20;99.90;;;;;;5055659;28;20572;-86